createdAt,value
2024-04-09T03:32:23.472Z,10.31
2024-04-09T03:34:50.456Z,10.34
2024-04-09T03:37:17.402Z,9.13
2024-04-09T03:39:44.348Z,8.63
2024-04-09T03:42:11.372Z,8.68
2024-04-09T03:44:38.294Z,8.65
2024-04-09T03:47:05.196Z,8.03
2024-04-09T03:49:32.124Z,8.13
2024-04-09T03:51:59.067Z,8.42
2024-04-09T03:54:26.020Z,7.83
2024-04-09T03:56:52.956Z,7.39
2024-04-09T03:59:19.876Z,7.53
2024-04-09T04:01:46.898Z,7.31
2024-04-09T04:04:13.954Z,7.27
2024-04-09T04:06:41.008Z,7.30
2024-04-09T04:09:07.955Z,7.36
2024-04-09T04:11:34.940Z,7.53
2024-04-09T04:14:01.962Z,7.09
2024-04-09T04:16:28.885Z,6.89
2024-04-09T04:18:55.838Z,7.04
2024-04-09T04:21:22.858Z,6.99
2024-04-09T04:23:49.824Z,7.03
2024-04-09T04:26:16.747Z,7.04
2024-04-09T04:28:43.743Z,6.77
2024-04-09T04:31:10.661Z,6.83
2024-04-09T04:33:37.727Z,6.62
2024-04-09T04:36:04.821Z,6.52
2024-04-09T04:38:31.746Z,6.43
2024-04-09T04:40:58.679Z,6.43
2024-04-09T04:43:25.577Z,6.71
2024-04-09T04:46:10.778Z,6.74
2024-04-09T04:48:37.983Z,6.58
2024-04-09T04:51:05.293Z,6.98
2024-04-09T04:53:32.589Z,6.28
2024-04-09T04:55:59.640Z,5.77
2024-04-09T04:58:26.738Z,5.90
2024-04-09T05:00:53.830Z,5.54
2024-04-09T05:03:21.271Z,5.39
2024-04-09T05:05:48.340Z,5.67
2024-04-09T05:08:15.245Z,5.69
2024-04-09T05:10:42.208Z,5.31
2024-04-09T05:13:09.209Z,5.10
2024-04-09T05:15:36.186Z,5.05
2024-04-09T05:18:03.563Z,5.06
2024-04-09T05:20:30.988Z,5.16
2024-04-09T05:22:58.219Z,4.99
2024-04-09T05:25:25.252Z,5.20
2024-04-09T05:27:52.175Z,5.08
2024-04-09T05:30:19.154Z,4.99
2024-04-09T05:32:46.324Z,4.94
2024-04-09T05:35:13.296Z,4.84
2024-04-09T05:37:40.233Z,4.84
2024-04-09T05:40:07.144Z,4.83
2024-04-09T05:42:34.122Z,4.83
2024-04-09T05:45:01.105Z,4.92
2024-04-09T05:47:28.165Z,4.82
2024-04-09T05:49:55.128Z,4.84
2024-04-09T05:52:22.033Z,4.52
2024-04-09T05:54:48.963Z,4.31
2024-04-09T05:57:15.933Z,4.14
2024-04-09T05:59:42.880Z,4.18
2024-04-09T06:02:09.836Z,4.08
2024-04-09T06:04:36.904Z,4.14
2024-04-09T06:07:04.020Z,4.09
2024-04-09T06:09:31.024Z,3.92
2024-04-09T06:11:58.050Z,3.91
2024-04-09T06:14:25.030Z,3.97
2024-04-09T06:16:52.211Z,3.95
2024-04-09T06:19:19.784Z,3.97
2024-04-09T06:21:46.785Z,3.77
2024-04-09T06:24:13.751Z,3.95
2024-04-09T06:26:40.741Z,3.75
2024-04-09T06:29:07.672Z,3.61
2024-04-09T06:31:34.570Z,3.62
2024-04-09T06:34:01.659Z,3.65
2024-04-09T06:36:28.766Z,3.75
2024-04-09T06:38:55.759Z,3.74
2024-04-09T06:41:22.721Z,3.70
2024-04-09T06:43:49.613Z,3.55
2024-04-09T06:46:16.534Z,3.28
2024-04-09T06:48:43.563Z,3.28
2024-04-09T06:51:10.577Z,3.43
2024-04-09T06:53:37.540Z,3.73
2024-04-09T06:56:04.468Z,3.24
2024-04-09T06:58:31.383Z,3.29
2024-04-09T07:00:58.398Z,3.19
2024-04-09T07:03:25.490Z,3.15
2024-04-09T07:05:52.410Z,3.43
2024-04-09T07:08:19.431Z,3.26
2024-04-09T07:10:46.333Z,3.57
2024-04-09T07:13:13.253Z,3.35
2024-04-09T07:15:40.253Z,3.16
2024-04-09T07:18:07.352Z,2.96
2024-04-09T07:20:34.326Z,2.92
2024-04-09T07:23:01.225Z,2.90
2024-04-09T07:25:28.156Z,2.94
2024-04-09T07:27:55.063Z,3.18
2024-04-09T07:30:22.050Z,3.04
2024-04-09T07:32:49.053Z,3.31
2024-04-09T07:35:15.979Z,3.11
2024-04-09T07:37:42.890Z,3.20
2024-04-09T07:40:09.787Z,3.31
2024-04-09T07:42:36.780Z,3.38
2024-04-09T07:45:03.780Z,3.51
2024-04-09T07:47:30.784Z,3.25
2024-04-09T07:49:57.764Z,3.43
2024-04-09T07:52:24.818Z,3.76
2024-04-09T07:54:51.760Z,3.56
2024-04-09T07:57:18.806Z,3.50
2024-04-09T07:59:45.757Z,3.90
2024-04-09T08:02:12.674Z,3.84
2024-04-09T08:04:39.708Z,3.88
2024-04-09T08:07:06.914Z,3.67
2024-04-09T08:09:34.252Z,3.96
2024-04-09T08:12:01.608Z,3.76
2024-04-09T08:14:28.669Z,4.12
2024-04-09T08:16:55.578Z,4.08
2024-04-09T08:19:22.713Z,3.88
2024-04-09T08:21:49.875Z,3.93
2024-04-09T08:24:16.906Z,4.26
2024-04-09T08:26:43.846Z,4.61
2024-04-09T08:29:10.767Z,4.85
2024-04-09T08:31:37.673Z,5.39
2024-04-09T08:34:05.024Z,5.60
2024-04-09T08:36:32.278Z,5.62
2024-04-09T08:38:59.422Z,5.96
2024-04-09T08:41:26.525Z,6.03
2024-04-09T08:43:53.499Z,6.07
2024-04-09T08:46:20.556Z,6.06
2024-04-09T08:48:47.926Z,6.09
2024-04-09T08:51:15.340Z,5.68
2024-04-09T08:53:42.650Z,4.71
2024-04-09T08:56:09.571Z,4.68
2024-04-09T08:58:36.489Z,4.68
2024-04-09T09:01:03.547Z,4.69
2024-04-09T09:03:30.770Z,4.48
2024-04-09T09:05:57.834Z,4.49
2024-04-09T09:08:24.747Z,5.26
2024-04-09T09:10:51.690Z,5.75
2024-04-09T09:13:18.619Z,5.78
2024-04-09T09:15:45.584Z,5.91
2024-04-09T09:18:12.713Z,5.94
2024-04-09T09:20:39.673Z,5.90
2024-04-09T09:23:06.579Z,5.88
2024-04-09T09:25:33.502Z,6.00
2024-04-09T09:28:00.409Z,5.40
2024-04-09T09:30:27.409Z,5.62
2024-04-09T09:32:54.454Z,6.28
2024-04-09T09:35:21.365Z,6.44
2024-04-09T09:37:48.290Z,6.36
2024-04-09T09:40:15.231Z,6.53
2024-04-09T09:42:42.221Z,6.51
2024-04-09T09:45:09.223Z,6.26
2024-04-09T09:47:36.273Z,6.32
2024-04-09T09:50:10.886Z,6.39
2024-04-09T09:52:43.957Z,6.76
2024-04-09T09:55:10.940Z,6.90
2024-04-09T09:57:37.972Z,6.73
2024-04-09T10:00:06.317Z,6.89
2024-04-09T10:02:35.276Z,6.96
2024-04-09T10:05:02.482Z,6.97
2024-04-09T10:07:29.438Z,7.06
2024-04-09T10:09:56.348Z,7.38
2024-04-09T10:12:23.355Z,7.07
2024-04-09T10:14:50.322Z,6.64
2024-04-09T10:17:17.312Z,6.62
2024-04-09T10:19:44.228Z,6.91
2024-04-09T10:22:11.162Z,6.88
2024-04-09T10:24:38.142Z,6.80
2024-04-09T10:27:05.158Z,6.57
2024-04-09T10:29:32.109Z,6.37
2024-04-09T10:31:59.013Z,6.92
2024-04-09T10:34:26.264Z,6.80
2024-04-09T10:36:56.387Z,7.08
2024-04-09T10:39:23.423Z,7.07
2024-04-09T10:41:50.419Z,7.02
2024-04-09T10:44:17.338Z,7.26
2024-04-09T10:46:44.298Z,7.35
2024-04-09T10:49:11.307Z,7.04
2024-04-09T10:51:38.390Z,7.43
2024-04-09T10:54:05.457Z,7.77
2024-04-09T10:56:32.502Z,7.62
2024-04-09T10:58:59.411Z,7.54
2024-04-09T11:01:26.381Z,7.59
2024-04-09T11:03:53.592Z,7.15
2024-04-09T11:06:20.700Z,7.14
2024-04-09T11:08:47.857Z,6.86
2024-04-09T11:11:14.963Z,6.81
2024-04-09T11:13:42.074Z,6.64
2024-04-09T11:16:09.024Z,6.75
2024-04-09T11:18:36.164Z,6.68
2024-04-09T11:21:03.270Z,6.60
2024-04-09T11:23:30.265Z,6.47
2024-04-09T11:25:57.189Z,6.72
2024-04-09T11:28:24.464Z,6.55
2024-04-09T11:30:51.480Z,6.70
2024-04-09T11:33:18.538Z,6.78
2024-04-09T11:35:45.543Z,6.73
2024-04-09T11:38:12.446Z,6.95
2024-04-09T11:40:39.385Z,6.45
2024-04-09T11:43:06.323Z,6.63
2024-04-09T11:45:33.337Z,7.04
2024-04-09T11:48:00.484Z,6.43
2024-04-09T11:50:27.535Z,6.99
2024-04-09T11:52:54.511Z,6.53
2024-04-09T11:55:24.111Z,6.28
2024-04-09T11:57:52.461Z,6.93
2024-04-09T12:00:19.427Z,7.04
2024-04-09T12:02:46.379Z,7.38
2024-04-09T12:05:13.376Z,7.18
2024-04-09T12:07:40.370Z,6.98
2024-04-09T12:10:07.337Z,7.25
2024-04-09T12:12:34.369Z,7.48
2024-04-09T12:15:01.494Z,7.87
2024-04-09T12:17:28.567Z,7.70
2024-04-09T12:19:55.558Z,8.06
2024-04-09T12:22:23.017Z,7.74
2024-04-09T12:24:50.741Z,7.82
2024-04-09T12:27:17.753Z,7.74
2024-04-09T12:29:44.682Z,7.79
2024-04-09T12:32:11.597Z,7.64
2024-04-09T12:34:38.700Z,7.50
2024-04-09T12:37:05.726Z,7.58
2024-04-09T12:39:32.764Z,7.27
2024-04-09T12:41:59.774Z,7.61
2024-04-09T12:44:26.699Z,7.80
2024-04-09T12:46:53.635Z,7.91
2024-04-09T12:49:28.036Z,8.03
2024-04-09T12:52:01.989Z,7.98
2024-04-09T12:54:28.961Z,8.24
2024-04-09T12:56:55.882Z,8.35
2024-04-09T12:59:30.455Z,8.40
2024-04-09T13:02:06.190Z,8.07
2024-04-09T13:04:33.338Z,8.04
2024-04-09T13:07:00.404Z,7.93
2024-04-09T13:09:27.404Z,8.16
2024-04-09T13:11:54.345Z,8.08
2024-04-09T13:14:21.270Z,8.24
2024-04-09T13:16:52.240Z,7.70
2024-04-09T13:19:20.691Z,7.94
2024-04-09T13:21:47.793Z,7.45
2024-04-09T13:24:14.707Z,7.45
2024-04-09T13:26:41.618Z,7.21
2024-04-09T13:29:08.578Z,6.98
2024-04-09T13:31:35.556Z,7.32
2024-04-09T13:34:02.700Z,7.38
2024-04-09T13:36:29.696Z,7.38
2024-04-09T13:38:56.648Z,7.32
2024-04-09T13:41:23.708Z,7.62
2024-04-09T13:43:50.714Z,7.94
2024-04-09T13:46:18.026Z,7.83
2024-04-09T13:48:45.217Z,7.82
2024-04-09T13:51:12.769Z,8.02
2024-04-09T13:53:39.928Z,8.00
2024-04-09T13:56:06.896Z,8.19
2024-04-09T13:58:33.860Z,8.40
2024-04-09T14:01:00.851Z,7.93
2024-04-09T14:03:27.998Z,7.96
2024-04-09T14:05:55.140Z,8.00
2024-04-09T14:08:22.139Z,8.10
2024-04-09T14:10:49.308Z,8.26
2024-04-09T14:13:16.307Z,7.91
2024-04-09T14:15:43.252Z,7.73
2024-04-09T14:18:10.320Z,7.52
2024-04-09T14:20:37.452Z,7.25
2024-04-09T14:23:04.461Z,7.52
2024-04-09T14:25:31.410Z,7.60
2024-04-09T14:27:58.339Z,7.44
2024-04-09T14:30:25.257Z,7.43
2024-04-09T14:32:52.388Z,7.22
2024-04-09T14:35:19.427Z,6.99
2024-04-09T14:37:46.444Z,7.23
2024-04-09T14:40:13.348Z,7.15
2024-04-09T14:42:40.281Z,7.36
2024-04-09T14:45:07.248Z,7.41
2024-04-09T14:47:34.345Z,7.53
2024-04-09T14:50:01.468Z,7.66
2024-04-09T14:52:28.435Z,7.66
2024-04-09T14:54:55.483Z,7.59
2024-04-09T14:57:22.466Z,7.89
2024-04-09T14:59:49.385Z,7.90
2024-04-09T15:02:16.413Z,7.70
2024-04-09T15:04:43.840Z,7.73
2024-04-09T15:07:10.813Z,7.73
2024-04-09T15:09:37.718Z,7.18
2024-04-09T15:12:04.714Z,7.57
2024-04-09T15:14:31.687Z,7.60
2024-04-09T15:16:58.778Z,7.65
2024-04-09T15:19:25.712Z,7.76
2024-04-09T15:21:52.638Z,7.56
2024-04-09T15:24:19.578Z,7.87
2024-04-09T15:26:46.531Z,7.82
2024-04-09T15:29:13.558Z,7.90
2024-04-09T15:31:40.575Z,8.21
2024-04-09T15:34:07.659Z,7.99
2024-04-09T15:36:34.729Z,7.97
2024-04-09T15:39:01.681Z,8.05
2024-04-09T15:41:28.769Z,7.07
2024-04-09T15:43:55.830Z,7.48
2024-04-09T15:46:22.768Z,6.88
2024-04-09T15:48:49.822Z,6.82
2024-04-09T15:51:17.765Z,6.91
2024-04-09T15:53:44.680Z,6.06
2024-04-09T15:56:11.632Z,5.87
2024-04-09T15:58:38.585Z,6.06
2024-04-09T16:01:05.538Z,6.59
2024-04-09T16:03:32.842Z,7.25
2024-04-09T16:05:59.868Z,7.92
2024-04-09T16:08:26.902Z,8.26
2024-04-09T16:10:54.065Z,8.72
2024-04-09T16:13:21.096Z,9.08
2024-04-09T16:15:48.004Z,8.86
2024-04-09T16:18:15.181Z,8.58
2024-04-09T16:20:42.180Z,8.33
2024-04-09T16:23:09.205Z,8.53
2024-04-09T16:25:36.155Z,7.78
2024-04-09T16:28:03.100Z,7.41
2024-04-09T16:30:30.017Z,7.96
2024-04-09T16:32:58.400Z,7.80
2024-04-09T16:35:25.679Z,7.41
2024-04-09T16:37:52.791Z,7.59
2024-04-09T16:40:19.752Z,7.96
2024-04-09T16:42:46.670Z,8.23
2024-04-09T16:45:13.560Z,8.24
2024-04-09T16:47:40.700Z,7.29
2024-04-09T16:50:07.717Z,7.08
2024-04-09T16:52:34.669Z,6.70
2024-04-09T16:55:01.574Z,7.10
2024-04-09T16:57:33.817Z,7.54
2024-04-09T17:00:08.862Z,7.93
2024-04-09T17:02:35.951Z,7.61
2024-04-09T17:05:03.297Z,7.60
2024-04-09T17:07:30.308Z,7.54
2024-04-09T17:09:57.212Z,7.88
2024-04-09T17:12:24.166Z,7.84
2024-04-09T17:14:51.094Z,7.61
2024-04-09T17:17:18.085Z,7.66
2024-04-09T17:19:45.073Z,7.60
2024-04-09T17:22:12.011Z,7.85
2024-04-09T17:24:38.944Z,7.59
2024-04-09T17:27:05.873Z,7.86
2024-04-09T17:29:32.801Z,7.97
2024-04-09T17:31:59.826Z,7.94
2024-04-09T17:34:26.850Z,8.07
2024-04-09T17:36:53.816Z,7.46
2024-04-09T17:39:20.713Z,7.36
2024-04-09T17:41:47.627Z,7.75
2024-04-09T17:44:14.626Z,7.77
2024-04-09T17:46:41.678Z,7.98
2024-04-09T17:49:08.807Z,8.01
2024-04-09T17:51:35.827Z,7.73
2024-04-09T17:54:02.737Z,7.75
2024-04-09T17:56:29.730Z,7.70
2024-04-09T17:58:56.787Z,7.90
2024-04-09T18:01:27.918Z,7.97
2024-04-09T18:03:55.364Z,7.98
2024-04-09T18:06:22.316Z,7.73
2024-04-09T18:08:49.257Z,7.57
2024-04-09T18:11:16.266Z,7.10
2024-04-09T18:13:43.322Z,7.05
2024-04-09T18:16:10.248Z,7.30
2024-04-09T18:18:37.425Z,7.41
2024-04-09T18:21:04.399Z,7.52
2024-04-09T18:23:31.359Z,7.08
2024-04-09T18:25:58.380Z,7.28
2024-04-09T18:28:25.336Z,7.49
2024-04-09T18:30:52.265Z,7.67
2024-04-09T18:33:19.429Z,7.56
2024-04-09T18:35:46.422Z,7.57
2024-04-09T18:38:13.390Z,7.35
2024-04-09T18:40:40.377Z,7.27
2024-04-09T18:43:07.321Z,7.29
2024-04-09T18:45:34.233Z,7.04
2024-04-09T18:48:01.377Z,7.15
2024-04-09T18:50:28.575Z,7.33
2024-04-09T18:52:55.631Z,7.31
2024-04-09T18:55:22.570Z,7.24
2024-04-09T18:57:49.089Z,7.13
2024-04-09T19:00:17.319Z,7.07
2024-04-09T19:02:44.115Z,7.22
2024-04-09T19:05:10.719Z,7.29
2024-04-09T19:07:37.276Z,7.46
2024-04-09T19:10:04.021Z,7.50
2024-04-09T19:12:30.717Z,7.32
2024-04-09T19:14:57.247Z,7.53
2024-04-09T19:17:23.907Z,7.39
2024-04-09T19:19:50.502Z,7.38
2024-04-09T19:22:17.040Z,7.25
2024-04-09T19:24:43.601Z,6.24
2024-04-09T19:27:10.157Z,6.17
2024-04-09T19:29:36.743Z,6.28
2024-04-09T19:32:03.344Z,6.53
2024-04-09T19:34:29.901Z,6.79
2024-04-09T19:36:56.452Z,6.48
2024-04-09T19:39:23.002Z,6.26
2024-04-09T19:41:49.579Z,6.12
2024-04-09T19:44:19.518Z,5.79
2024-04-09T19:46:47.635Z,5.73
2024-04-09T19:49:15.301Z,5.62
2024-04-09T19:51:41.875Z,5.17
2024-04-09T19:54:08.494Z,4.77
2024-04-09T19:56:35.468Z,4.54
2024-04-09T19:59:02.538Z,4.98
